Time;durP1;ratioP1;P1;durP2;ratioP2;P2;SDS_P1;SDS_P2;PMS_P1;PMS_P2;Temp;Humidity;BMP_temperature;BMP_pressure;BME280_temperature;BME280_humidity;BME280_pressure;Samples;Min_cycle;Max_cycle;Signal;HPM_P1;HPM_P2
2022/08/22 00:01:38;;;;;;;1.88;1.58;;;14.70;99.90;;;;;;5022703;28;20442;-75
2022/08/22 00:04:31;;;;;;;2.95;2.00;;;14.50;99.90;;;;;;5021030;28;20029;-75
2022/08/22 00:07:28;;;;;;;2.35;1.65;;;14.40;99.90;;;;;;5019378;28;20449;-76
2022/08/22 00:10:06;;;;;;;3.22;1.60;;;14.50;99.90;;;;;;5023421;28;20033;-76
2022/08/22 00:13:00;;;;;;;1.88;1.50;;;14.40;99.90;;;;;;5020076;28;20033;-75
2022/08/22 00:15:41;;;;;;;2.28;1.67;;;14.30;99.90;;;;;;5020969;28;20037;-75
2022/08/22 00:18:36;;;;;;;3.00;1.90;;;14.30;99.90;;;;;;5027064;28;20391;-75
2022/08/22 00:21:13;;;;;;;2.38;1.95;;;14.20;99.90;;;;;;5019779;28;20026;-75
2022/08/22 00:23:59;;;;;;;2.10;1.70;;;14.20;99.90;;;;;;5024024;28;20029;-75
2022/08/22 00:26:41;;;;;;;1.83;1.48;;;14.20;99.90;;;;;;5024095;28;20034;-75
2022/08/22 00:29:11;;;;;;;1.88;1.40;;;14.00;99.90;;;;;;5026862;28;20057;-75
2022/08/22 00:31:46;;;;;;;2.58;2.00;;;13.90;99.90;;;;;;5026885;28;20037;-75
2022/08/22 00:34:29;;;;;;;2.03;1.70;;;14.00;99.90;;;;;;5025041;28;20095;-75
2022/08/22 00:37:02;;;;;;;2.35;1.50;;;14.00;99.90;;;;;;5023614;28;20017;-75
2022/08/22 00:40:02;;;;;;;3.38;1.50;;;13.90;99.90;;;;;;5026409;28;20028;-75
2022/08/22 00:43:02;;;;;;;3.55;1.30;;;14.00;99.90;;;;;;4938017;28;20147;-75
2022/08/22 00:45:57;;;;;;;2.60;1.58;;;14.00;99.90;;;;;;5024635;28;20022;-75
2022/08/22 00:48:39;;;;;;;2.05;1.45;;;13.90;99.90;;;;;;5020533;28;20026;-76
2022/08/22 00:52:07;;;;;;;2.50;2.00;;;13.90;99.90;;;;;;5024911;28;20022;-76
2022/08/22 00:54:46;;;;;;;2.38;1.67;;;13.90;99.90;;;;;;4989600;28;20037;-75
2022/08/22 00:57:29;;;;;;;1.85;1.23;;;13.80;99.90;;;;;;5024498;28;20117;-75
2022/08/22 01:00:08;;;;;;;1.85;1.40;;;13.90;99.90;;;;;;5022363;28;20527;-76
2022/08/22 01:02:52;;;;;;;1.88;1.73;;;13.70;99.90;;;;;;5022712;28;20459;-75
2022/08/22 01:05:36;;;;;;;4.70;1.25;;;13.80;99.90;;;;;;5027317;28;20531;-75
2022/08/22 01:08:26;;;;;;;2.97;1.75;;;13.70;99.90;;;;;;5025832;28;20356;-75
2022/08/22 01:11:32;;;;;;;2.25;1.50;;;13.90;99.90;;;;;;5023567;28;20505;-76
2022/08/22 01:14:19;;;;;;;1.85;1.40;;;13.70;99.90;;;;;;5023976;28;20112;-75
2022/08/22 01:17:00;;;;;;;2.92;1.60;;;13.60;99.90;;;;;;5024270;28;20200;-75
2022/08/22 01:20:05;;;;;;;3.08;1.80;;;13.60;99.90;;;;;;5017960;28;20044;-75
2022/08/22 01:23:05;;;;;;;1.77;1.55;;;13.60;99.90;;;;;;5016314;28;20088;-76
2022/08/22 01:26:17;;;;;;;1.20;0.90;;;13.50;99.90;;;;;;5024538;28;20029;-75
2022/08/22 01:29:04;;;;;;;2.72;1.50;;;13.40;99.90;;;;;;5024282;28;20033;-76
2022/08/22 01:31:46;;;;;;;1.27;1.17;;;13.40;99.90;;;;;;5022461;28;20176;-75
2022/08/22 01:34:44;;;;;;;1.42;1.33;;;13.60;99.90;;;;;;5026037;28;20033;-75
2022/08/22 01:37:44;;;;;;;2.78;1.48;;;13.60;99.90;;;;;;5022313;28;20033;-75
2022/08/22 01:40:49;;;;;;;3.47;1.10;;;13.40;99.90;;;;;;5020750;28;20128;-75
2022/08/22 01:43:34;;;;;;;2.10;1.60;;;13.40;99.90;;;;;;5023707;28;20025;-75
2022/08/22 01:46:27;;;;;;;2.15;1.52;;;13.50;99.90;;;;;;5024925;28;20053;-75
2022/08/22 01:49:06;;;;;;;2.03;1.42;;;13.30;99.90;;;;;;5018458;28;20091;-75
2022/08/22 01:51:50;;;;;;;1.77;1.25;;;13.40;99.90;;;;;;5022447;28;20395;-75
2022/08/22 01:54:54;;;;;;;2.28;1.50;;;13.50;99.90;;;;;;5023717;28;20037;-75
2022/08/22 01:57:21;;;;;;;2.45;1.40;;;13.40;99.90;;;;;;5024215;28;20499;-75
2022/08/22 01:59:53;;;;;;;4.68;1.48;;;13.30;99.90;;;;;;5019069;28;20108;-75
2022/08/22 02:02:51;;;;;;;2.10;1.50;;;13.30;99.90;;;;;;5022274;28;20577;-76
2022/08/22 02:05:20;;;;;;;2.05;1.25;;;13.30;99.90;;;;;;5020425;28;20103;-75
2022/08/22 02:08:00;;;;;;;1.77;1.40;;;13.20;99.90;;;;;;5024243;28;20104;-76
2022/08/22 02:10:40;;;;;;;4.13;1.08;;;13.30;99.90;;;;;;5023263;28;20144;-75
2022/08/22 02:13:31;;;;;;;1.05;0.95;;;13.20;99.90;;;;;;5024502;28;20038;-75
2022/08/22 02:16:30;;;;;;;1.60;1.38;;;13.30;99.90;;;;;;5024787;28;20022;-75
2022/08/22 02:19:10;;;;;;;1.20;1.00;;;13.30;99.90;;;;;;5023898;28;20025;-75
2022/08/22 02:22:16;;;;;;;5.95;0.93;;;13.20;99.90;;;;;;5024291;28;20103;-76
2022/08/22 02:24:48;;;;;;;2.15;1.15;;;13.30;99.90;;;;;;5020026;28;20025;-75
2022/08/22 02:27:32;;;;;;;1.70;1.27;;;13.20;99.90;;;;;;5025359;28;20395;-75
2022/08/22 02:30:14;;;;;;;1.13;1.00;;;13.20;99.90;;;;;;5024068;28;20046;-75
2022/08/22 02:32:40;;;;;;;1.60;0.90;;;13.20;99.90;;;;;;5024784;28;20406;-75
2022/08/22 02:35:21;;;;;;;1.75;1.30;;;13.10;99.90;;;;;;5024097;28;20030;-75
2022/08/22 02:38:20;;;;;;;1.40;1.23;;;13.10;99.90;;;;;;5026483;28;20605;-75
2022/08/22 02:41:05;;;;;;;1.58;1.13;;;13.20;99.90;;;;;;5019628;28;21269;-75
2022/08/22 02:43:58;;;;;;;3.20;0.98;;;13.10;99.90;;;;;;5013337;28;20406;-75
2022/08/22 02:46:48;;;;;;;1.20;1.05;;;13.10;99.90;;;;;;5021496;28;20037;-75
2022/08/22 02:49:41;;;;;;;1.23;1.02;;;12.90;99.90;;;;;;5017444;28;20286;-76
2022/08/22 02:52:28;;;;;;;2.00;1.00;;;12.80;99.90;;;;;;5025718;28;20155;-75
2022/08/22 02:55:02;;;;;;;1.25;1.15;;;12.80;99.90;;;;;;5024640;28;20037;-75
2022/08/22 02:57:56;;;;;;;0.93;0.82;;;13.00;99.90;;;;;;5026517;28;20053;-75
2022/08/22 03:00:21;;;;;;;1.65;1.17;;;13.00;99.90;;;;;;5025476;28;20395;-75
2022/08/22 03:03:20;;;;;;;2.75;1.23;;;13.00;99.90;;;;;;5022054;28;20032;-75
2022/08/22 03:06:04;;;;;;;3.60;0.93;;;13.00;99.90;;;;;;5008598;28;20044;-75
2022/08/22 03:08:40;;;;;;;1.63;1.35;;;12.90;99.90;;;;;;5021124;28;20092;-75
2022/08/22 03:11:20;;;;;;;1.15;1.05;;;13.10;99.90;;;;;;5025481;28;20033;-75
2022/08/22 03:14:04;;;;;;;1.90;1.08;;;13.20;99.90;;;;;;5023917;28;20033;-75
2022/08/22 03:16:46;;;;;;;1.95;1.10;;;13.30;99.90;;;;;;5018584;28;20487;-75
2022/08/22 03:19:27;;;;;;;1.73;1.33;;;13.30;99.90;;;;;;5023238;28;20028;-75
2022/08/22 03:22:04;;;;;;;1.30;1.20;;;13.40;99.90;;;;;;5024968;28;20025;-75
2022/08/22 03:24:55;;;;;;;2.05;1.40;;;13.40;99.90;;;;;;5024104;28;20078;-75
2022/08/22 03:27:33;;;;;;;12.18;1.75;;;13.60;99.90;;;;;;5021810;28;20522;-75
2022/08/22 03:30:08;;;;;;;1.48;1.00;;;13.80;99.90;;;;;;5021867;28;20105;-76
2022/08/22 03:32:58;;;;;;;1.10;1.00;;;13.70;99.90;;;;;;5023767;28;20112;-75
2022/08/22 03:35:31;;;;;;;1.33;1.17;;;13.80;99.90;;;;;;5019394;28;20026;-75
2022/08/22 03:38:11;;;;;;;1.52;1.10;;;13.70;99.90;;;;;;5021011;28;20495;-75
2022/08/22 03:40:56;;;;;;;1.00;0.93;;;13.60;99.90;;;;;;5017546;28;20109;-75
2022/08/22 03:43:42;;;;;;;1.15;0.95;;;13.60;99.90;;;;;;5019773;28;20038;-76
2022/08/22 03:46:48;;;;;;;1.35;1.00;;;13.50;99.90;;;;;;5022120;28;20030;-76
2022/08/22 03:49:51;;;;;;;0.98;0.98;;;13.40;99.90;;;;;;5022810;28;20534;-75
2022/08/22 03:53:05;;;;;;;2.40;1.15;;;13.30;99.90;;;;;;5022477;28;20423;-75
2022/08/22 03:55:44;;;;;;;2.83;1.13;;;13.20;99.90;;;;;;5027846;28;20034;-75
2022/08/22 03:58:52;;;;;;;1.30;1.00;;;13.30;99.90;;;;;;5023432;28;20159;-76
2022/08/22 04:01:36;;;;;;;1.05;0.98;;;13.20;99.90;;;;;;5027660;28;20575;-75
2022/08/22 04:04:48;;;;;;;0.93;0.90;;;13.10;99.90;;;;;;5027966;28;20400;-75
2022/08/22 04:07:24;;;;;;;;;;;13.10;99.90;;;;;;5024455;28;20032;-75
2022/08/22 04:10:15;;;;;;;2.65;1.10;;;13.00;99.90;;;;;;5023297;28;19913;-75
2022/08/22 04:12:52;;;;;;;1.30;1.10;;;13.00;99.90;;;;;;5020559;28;20033;-75
2022/08/22 04:15:44;;;;;;;1.42;1.10;;;13.00;99.90;;;;;;5024527;28;20079;-75
2022/08/22 04:18:33;;;;;;;2.15;1.13;;;13.10;99.90;;;;;;5026334;28;20065;-75
2022/08/22 04:21:13;;;;;;;2.00;1.20;;;13.10;99.90;;;;;;5025255;28;20415;-75
2022/08/22 04:23:46;;;;;;;1.55;1.20;;;13.20;99.90;;;;;;5027060;28;20710;-75
2022/08/22 04:26:21;;;;;;;1.13;0.85;;;13.10;99.90;;;;;;5023921;28;20033;-75
2022/08/22 04:29:04;;;;;;;1.67;1.00;;;13.10;99.90;;;;;;5024932;28;20045;-75
2022/08/22 04:31:40;;;;;;;1.33;1.10;;;13.10;99.90;;;;;;5025984;28;20060;-75
2022/08/22 04:34:36;;;;;;;0.82;0.82;;;13.10;99.90;;;;;;5026765;28;20029;-75
2022/08/22 04:37:34;;;;;;;1.30;1.08;;;13.20;99.90;;;;;;5011209;28;20121;-75
2022/08/22 04:40:24;;;;;;;2.17;1.25;;;13.30;99.90;;;;;;5009017;28;20377;-75
2022/08/22 04:42:57;;;;;;;2.17;1.33;;;13.30;99.90;;;;;;5025605;28;20094;-75
2022/08/22 04:45:35;;;;;;;2.40;1.25;;;13.40;99.90;;;;;;5025069;28;20554;-75
2022/08/22 04:48:21;;;;;;;1.70;1.10;;;13.60;99.90;;;;;;5025189;28;20037;-75
2022/08/22 04:51:25;;;;;;;1.73;1.25;;;13.60;99.90;;;;;;5023094;28;20598;-75
2022/08/22 04:54:20;;;;;;;1.00;0.90;;;13.50;99.90;;;;;;5007402;28;20037;-76
2022/08/22 04:57:06;;;;;;;4.53;1.42;;;13.60;99.90;;;;;;5023591;28;20041;-76
2022/08/22 04:59:33;;;;;;;1.63;1.45;;;13.50;99.90;;;;;;5025415;28;20149;-80
2022/08/22 05:02:05;;;;;;;1.55;1.45;;;13.60;99.90;;;;;;5021402;28;20021;-77
2022/08/22 05:04:39;;;;;;;3.92;1.30;;;13.60;99.90;;;;;;5014928;28;20041;-77
2022/08/22 05:07:21;;;;;;;2.53;1.33;;;13.60;99.90;;;;;;5020804;28;20037;-77
2022/08/22 05:09:55;;;;;;;1.98;0.95;;;13.70;99.90;;;;;;5019550;28;20382;-77
2022/08/22 05:12:31;;;;;;;1.63;1.38;;;13.80;99.90;;;;;;5018350;28;20103;-76
2022/08/22 05:15:21;;;;;;;2.92;1.67;;;13.80;99.90;;;;;;5023913;28;20029;-76
2022/08/22 05:17:50;;;;;;;2.20;1.27;;;13.80;99.90;;;;;;5021910;28;20131;-78
2022/08/22 05:20:20;;;;;;;1.70;1.27;;;13.70;99.90;;;;;;5017799;28;20164;-75
2022/08/22 05:22:51;;;;;;;3.15;1.17;;;13.70;99.90;;;;;;5022162;28;20044;-75
2022/08/22 05:25:23;;;;;;;1.77;1.38;;;13.70;99.90;;;;;;5023420;28;20028;-75
2022/08/22 05:27:54;;;;;;;2.75;1.17;;;13.80;99.90;;;;;;5024533;28;20042;-75
2022/08/22 05:30:26;;;;;;;2.33;1.42;;;13.90;99.90;;;;;;5026069;28;20048;-76
2022/08/22 05:33:05;;;;;;;3.80;1.65;;;13.90;99.90;;;;;;5023869;28;20438;-76
2022/08/22 05:35:45;;;;;;;2.97;1.90;;;14.00;99.90;;;;;;5028613;28;20029;-76
2022/08/22 05:38:14;;;;;;;1.38;1.20;;;14.10;99.90;;;;;;5025528;28;20029;-76
2022/08/22 05:40:42;;;;;;;1.30;1.20;;;14.30;99.90;;;;;;5027349;28;20075;-76
2022/08/22 05:43:11;;;;;;;1.80;1.15;;;14.40;99.90;;;;;;5026710;28;20025;-76
2022/08/22 05:45:43;;;;;;;4.38;1.73;;;14.40;99.90;;;;;;5027666;28;20029;-76
2022/08/22 05:48:18;;;;;;;1.67;0.98;;;14.50;99.90;;;;;;5022627;28;20029;-76
2022/08/22 05:50:51;;;;;;;6.03;1.60;;;14.70;99.90;;;;;;5039547;28;20122;-77
2022/08/22 05:53:29;;;;;;;1.77;1.33;;;14.90;99.90;;;;;;5026061;28;20533;-76
2022/08/22 05:56:03;;;;;;;6.72;1.70;;;15.20;99.90;;;;;;5026323;28;20026;-77
2022/08/22 05:58:37;;;;;;;4.63;1.45;;;15.30;99.90;;;;;;5024322;28;20036;-77
2022/08/22 06:01:17;;;;;;;2.08;1.60;;;15.40;99.90;;;;;;5018124;28;20073;-77
2022/08/22 06:03:58;;;;;;;1.98;1.63;;;15.60;99.90;;;;;;5026130;28;20138;-77
2022/08/22 06:06:27;;;;;;;1.67;1.50;;;15.80;99.90;;;;;;5027367;28;20029;-77
2022/08/22 06:09:09;;;;;;;2.40;1.20;;;15.90;99.90;;;;;;5022170;28;20523;-77
2022/08/22 06:11:58;;;;;;;2.10;1.88;;;16.10;99.90;;;;;;5024764;28;20044;-76
2022/08/22 06:14:42;;;;;;;1.55;1.45;;;16.30;99.90;;;;;;5017442;28;20462;-75
2022/08/22 06:17:16;;;;;;;1.85;1.42;;;16.60;99.90;;;;;;5025346;28;20029;-77
2022/08/22 06:19:46;;;;;;;2.50;1.20;;;16.70;99.90;;;;;;5021783;28;20029;-76
2022/08/22 06:22:20;;;;;;;1.90;1.58;;;16.70;99.90;;;;;;5023406;28;20030;-76
2022/08/22 06:24:48;;;;;;;3.30;1.90;;;16.70;99.90;;;;;;5021373;28;20112;-76
2022/08/22 06:27:17;;;;;;;1.65;1.55;;;16.90;99.90;;;;;;5021611;28;20117;-76
2022/08/22 06:29:57;;;;;;;3.75;1.73;;;17.10;99.90;;;;;;5023026;28;20499;-75
2022/08/22 06:32:32;;;;;;;1.65;1.52;;;17.20;99.90;;;;;;5024265;28;20060;-76
2022/08/22 06:35:05;;;;;;;1.67;1.58;;;17.30;99.90;;;;;;5021513;28;20025;-76
2022/08/22 06:37:39;;;;;;;1.80;1.55;;;17.70;99.90;;;;;;5024242;28;20502;-79
2022/08/22 06:40:09;;;;;;;2.42;1.92;;;17.80;99.90;;;;;;5025654;28;20091;-77
2022/08/22 06:42:41;;;;;;;5.45;2.60;;;18.10;99.90;;;;;;5024748;28;20032;-74
2022/08/22 06:45:16;;;;;;;2.08;1.52;;;18.20;99.90;;;;;;5023160;28;20380;-73
2022/08/22 06:47:48;;;;;;;2.13;1.73;;;18.50;99.90;;;;;;5025373;28;20026;-76
2022/08/22 06:51:02;;;;;;;2.45;1.45;;;18.80;99.90;;;;;;5023816;28;20609;-76
2022/08/22 06:53:50;;;;;;;1.95;1.55;;;18.90;99.90;;;;;;4986871;28;20049;-76
2022/08/22 06:56:28;;;;;;;1.98;1.63;;;19.00;99.90;;;;;;5024668;28;20312;-76
2022/08/22 06:58:58;;;;;;;1.85;1.50;;;19.00;99.90;;;;;;5026291;28;20388;-76
2022/08/22 07:01:29;;;;;;;1.65;1.35;;;19.10;99.90;;;;;;5020650;28;20094;-76
2022/08/22 07:04:02;;;;;;;3.67;1.67;;;19.40;99.90;;;;;;5025421;28;20601;-76
2022/08/22 07:06:33;;;;;;;2.85;1.50;;;19.50;99.90;;;;;;5026030;28;20152;-76
2022/08/22 07:08:58;;;;;;;2.90;1.65;;;19.60;99.90;;;;;;5025347;28;20018;-76
2022/08/22 07:11:29;;;;;;;1.95;1.42;;;19.50;99.90;;;;;;5019845;28;20368;-77
2022/08/22 07:14:01;;;;;;;2.07;1.73;;;19.70;99.90;;;;;;5022401;28;20168;-76
2022/08/22 07:16:39;;;;;;;1.48;1.30;;;19.70;99.90;;;;;;5024896;28;20040;-76
2022/08/22 07:19:07;;;;;;;1.60;1.38;;;19.80;99.90;;;;;;5024977;28;20167;-76
2022/08/22 07:21:46;;;;;;;2.08;1.60;;;19.90;99.90;;;;;;5020558;28;20095;-74
2022/08/22 07:24:16;;;;;;;1.98;1.30;;;19.90;99.90;;;;;;5025216;28;20037;-74
2022/08/22 07:27:21;;;;;;;4.13;1.70;;;20.00;99.90;;;;;;5021513;28;20025;-76
2022/08/22 07:30:07;;;;;;;3.55;1.42;;;20.00;99.90;;;;;;5024987;28;20541;-76
2022/08/22 07:32:54;;;;;;;4.57;1.60;;;20.30;99.90;;;;;;5023081;28;20655;-74
2022/08/22 07:35:33;;;;;;;1.42;1.30;;;20.30;99.90;;;;;;5027616;28;20057;-76
2022/08/22 07:38:34;;;;;;;1.73;1.45;;;20.40;99.90;;;;;;5020607;28;20022;-75
2022/08/22 07:41:22;;;;;;;1.50;1.10;;;20.50;99.90;;;;;;5009821;28;20041;-76
2022/08/22 07:43:59;;;;;;;2.40;1.20;;;20.60;99.90;;;;;;5019435;28;20500;-75
2022/08/22 07:46:39;;;;;;;1.80;1.00;;;20.70;99.90;;;;;;5022387;28;20228;-75
2022/08/22 07:49:29;;;;;;;1.10;1.00;;;20.70;99.90;;;;;;5017215;28;20053;-76
2022/08/22 07:52:06;;;;;;;1.65;1.55;;;21.00;99.90;;;;;;5023308;28;20108;-76
2022/08/22 07:54:35;;;;;;;2.72;1.00;;;21.00;99.90;;;;;;5023533;28;20037;-75
2022/08/22 07:57:06;;;;;;;5.32;1.27;;;21.20;99.90;;;;;;5020888;28;20044;-76
2022/08/22 07:59:36;;;;;;;0.85;0.85;;;21.30;99.90;;;;;;5025188;28;20464;-76
2022/08/22 08:02:08;;;;;;;1.50;1.27;;;21.30;99.90;;;;;;5024823;28;20168;-76
2022/08/22 08:04:35;;;;;;;1.02;0.93;;;21.40;99.90;;;;;;5026593;28;20032;-76
2022/08/22 08:07:04;;;;;;;1.10;1.00;;;21.60;99.90;;;;;;5024090;28;20033;-76
2022/08/22 08:09:33;;;;;;;1.92;1.05;;;21.80;99.90;;;;;;5015696;28;20036;-77
2022/08/22 08:12:02;;;;;;;1.30;1.20;;;22.00;99.90;;;;;;5024362;28;20648;-76
2022/08/22 08:14:38;;;;;;;1.38;0.93;;;22.20;99.90;;;;;;5027512;28;20124;-76
2022/08/22 08:17:13;;;;;;;1.13;1.00;;;22.20;99.90;;;;;;5022332;28;20630;-76
2022/08/22 08:19:41;;;;;;;1.83;0.95;;;22.40;99.90;;;;;;5019012;28;20028;-77
2022/08/22 08:22:11;;;;;;;8.60;1.08;;;22.60;99.60;;;;;;5018008;28;20036;-76
2022/08/22 08:24:39;;;;;;;1.25;0.90;;;22.70;97.90;;;;;;5021891;28;20030;-76
2022/08/22 08:29:57;;;;;;;0.93;0.80;;;22.90;96.40;;;;;;5021311;28;20057;-76
2022/08/22 08:32:24;;;;;;;;;;;23.00;96.00;;;;;;5024196;28;20030;-77
2022/08/22 08:34:51;;;;;;;1.27;0.88;;;23.10;94.80;;;;;;5022170;28;20020;-76
2022/08/22 08:37:25;;;;;;;1.00;0.80;;;23.10;93.80;;;;;;5024318;28;20026;-76
2022/08/22 08:39:55;;;;;;;1.80;0.95;;;23.20;93.60;;;;;;5027672;28;20036;-76
2022/08/22 08:45:52;;;;;;;1.00;0.90;;;23.50;92.40;;;;;;5023383;28;20262;-77
2022/08/22 08:48:56;;;;;;;1.05;0.90;;;23.70;91.50;;;;;;5029904;28;20040;-77
2022/08/22 08:51:49;;;;;;;2.45;0.98;;;23.60;93.20;;;;;;5027114;28;20047;-77
2022/08/22 08:54:46;;;;;;;0.90;0.70;;;23.50;91.70;;;;;;5024295;28;20103;-78
2022/08/22 08:57:33;;;;;;;0.80;0.80;;;23.40;91.20;;;;;;5025878;28;20026;-78
2022/08/22 09:00:19;;;;;;;1.15;0.82;;;23.60;90.40;;;;;;5027400;28;20509;-79
2022/08/22 09:03:06;;;;;;;6.75;1.20;;;23.70;91.00;;;;;;5026248;28;20029;-77
2022/08/22 09:05:58;;;;;;;2.00;1.00;;;23.60;91.10;;;;;;5028299;28;20030;-78
2022/08/22 09:08:57;;;;;;;1.85;0.77;;;23.60;90.20;;;;;;5027408;28;20514;-76
2022/08/22 09:11:56;;;;;;;0.70;0.70;;;23.70;91.30;;;;;;5027872;28;20057;-77
2022/08/22 09:14:36;;;;;;;1.10;0.90;;;23.80;85.50;;;;;;5024797;28;20033;-77
2022/08/22 09:17:41;;;;;;;1.35;0.90;;;23.80;84.40;;;;;;5028742;28;20055;-77
2022/08/22 09:20:40;;;;;;;0.70;0.70;;;23.90;86.80;;;;;;5026130;28;20060;-77
2022/08/22 09:23:49;;;;;;;2.13;0.93;;;23.90;88.50;;;;;;5027266;28;20407;-77
2022/08/22 09:26:39;;;;;;;0.80;0.80;;;24.00;84.70;;;;;;4962379;28;20023;-75
2022/08/22 09:29:34;;;;;;;1.27;1.10;;;24.20;85.70;;;;;;4962744;28;20452;-75
2022/08/22 09:32:19;;;;;;;0.60;0.60;;;24.60;84.30;;;;;;5019243;28;20099;-77
2022/08/22 09:34:59;;;;;;;1.77;0.70;;;24.70;80.40;;;;;;5026200;28;20051;-76
2022/08/22 09:38:04;;;;;;;1.50;1.10;;;24.90;81.60;;;;;;5025148;28;20028;-77
2022/08/22 09:40:39;;;;;;;0.80;0.80;;;24.60;80.20;;;;;;5025289;28;20021;-76
2022/08/22 09:43:07;;;;;;;2.33;0.98;;;24.70;84.50;;;;;;5020898;28;20029;-75
2022/08/22 09:46:07;;;;;;;1.10;1.00;;;24.80;82.80;;;;;;5007885;28;20029;-75
2022/08/22 09:48:40;;;;;;;1.40;0.90;;;24.60;85.30;;;;;;5026685;28;20026;-76
2022/08/22 09:51:13;;;;;;;1.35;0.90;;;24.60;84.70;;;;;;5026374;28;20037;-76
2022/08/22 09:54:16;;;;;;;1.20;0.98;;;24.80;82.70;;;;;;5025348;28;20022;-75
2022/08/22 09:56:59;;;;;;;0.80;0.80;;;25.00;82.30;;;;;;5025312;28;20030;-76
2022/08/22 09:59:42;;;;;;;0.90;0.80;;;25.10;82.10;;;;;;5028607;28;20021;-75
2022/08/22 10:02:27;;;;;;;1.42;0.90;;;25.10;82.80;;;;;;5024247;28;20045;-76
2022/08/22 10:05:08;;;;;;;1.20;0.77;;;25.20;81.60;;;;;;5025669;28;20476;-76
2022/08/22 10:07:57;;;;;;;1.33;1.10;;;25.30;82.00;;;;;;5027517;28;20038;-76
2022/08/22 10:10:38;;;;;;;2.67;1.40;;;25.60;79.90;;;;;;5027746;28;20055;-75
2022/08/22 10:13:22;;;;;;;0.90;0.90;;;25.70;78.60;;;;;;5025458;28;20033;-76
2022/08/22 10:16:11;;;;;;;1.98;1.05;;;25.60;74.60;;;;;;5025240;28;20415;-75
2022/08/22 10:18:48;;;;;;;1.10;1.00;;;25.50;75.70;;;;;;5026089;28;20514;-77
2022/08/22 10:21:34;;;;;;;0.80;0.80;;;25.60;78.20;;;;;;5023570;28;20029;-80
2022/08/22 10:24:17;;;;;;;1.60;0.85;;;25.60;76.90;;;;;;5023261;28;20025;-73
2022/08/22 10:26:55;;;;;;;4.20;1.20;;;25.90;78.40;;;;;;5022199;28;20529;-77
2022/08/22 10:29:58;;;;;;;0.93;0.80;;;25.90;75.40;;;;;;5027371;28;20041;-76
2022/08/22 10:32:33;;;;;;;0.70;0.68;;;25.90;76.70;;;;;;5022317;28;20048;-76
2022/08/22 10:35:20;;;;;;;2.05;1.00;;;26.30;73.40;;;;;;5025179;28;20079;-78
2022/08/22 10:37:50;;;;;;;0.90;0.80;;;26.10;76.20;;;;;;5023891;28;20101;-85
2022/08/22 10:40:26;;;;;;;0.70;0.70;;;26.10;73.60;;;;;;5024835;28;20042;-77
2022/08/22 10:42:58;;;;;;;1.20;1.00;;;26.40;68.80;;;;;;5027172;28;20116;-77
2022/08/22 10:45:32;;;;;;;1.25;0.75;;;26.60;73.50;;;;;;5024865;28;20430;-77
2022/08/22 10:47:58;;;;;;;1.13;0.88;;;26.50;73.50;;;;;;5019984;28;20032;-76
2022/08/22 10:50:30;;;;;;;0.98;0.90;;;26.80;72.80;;;;;;5024470;28;20021;-77
2022/08/22 10:55:57;;;;;;;0.80;0.70;;;26.40;69.60;;;;;;5026937;28;20434;-77
2022/08/22 10:58:26;;;;;;;2.58;0.88;;;26.50;68.30;;;;;;5020561;28;20122;-78
2022/08/22 11:00:57;;;;;;;0.88;0.80;;;26.50;72.20;;;;;;5023339;28;20527;-77
2022/08/22 11:03:57;;;;;;;0.73;0.65;;;26.30;71.80;;;;;;5023952;28;20037;-77
2022/08/22 11:06:34;;;;;;;0.82;0.82;;;26.50;72.10;;;;;;5023895;28;20144;-75
2022/08/22 11:09:23;;;;;;;0.85;0.80;;;26.50;70.40;;;;;;5026046;28;20433;-79
2022/08/22 11:12:14;;;;;;;3.60;0.70;;;26.50;69.10;;;;;;5019986;28;20033;-77
2022/08/22 11:14:52;;;;;;;1.50;0.82;;;26.80;68.30;;;;;;5015963;28;20279;-76
2022/08/22 11:17:43;;;;;;;0.70;0.70;;;26.80;66.30;;;;;;5018826;28;20480;-76
2022/08/22 11:20:22;;;;;;;;;;;28.10;63.40;;;;;;5020892;28;20103;-76
2022/08/22 11:23:13;;;;;;;2.30;0.98;;;27.20;63.10;;;;;;5018947;28;19931;-77
2022/08/22 11:26:11;;;;;;;1.05;0.95;;;27.10;63.00;;;;;;5022624;28;20100;-76
2022/08/22 11:29:01;;;;;;;0.75;0.70;;;27.80;61.30;;;;;;5019962;28;20029;-76
2022/08/22 11:31:58;;;;;;;1.42;0.98;;;28.70;57.60;;;;;;5019269;28;20069;-76
2022/08/22 11:34:44;;;;;;;0.80;0.80;;;27.40;60.70;;;;;;5021679;28;20095;-76
2022/08/22 11:37:22;;;;;;;2.30;1.10;;;28.10;59.70;;;;;;5021530;28;20606;-77
2022/08/22 11:40:13;;;;;;;1.80;1.35;;;29.40;57.30;;;;;;5021093;28;20057;-76
2022/08/22 11:43:08;;;;;;;0.77;0.70;;;30.40;54.60;;;;;;5021981;28;20407;-77
2022/08/22 11:45:43;;;;;;;2.22;0.80;;;30.60;53.40;;;;;;5022044;28;20400;-77
2022/08/22 11:48:35;;;;;;;0.70;0.70;;;30.40;52.60;;;;;;5022929;28;20026;-76
2022/08/22 11:51:16;;;;;;;1.05;0.93;;;30.10;53.20;;;;;;5022520;28;20041;-76
2022/08/22 11:54:09;;;;;;;1.70;0.90;;;29.20;53.90;;;;;;5020067;28;20712;-77
2022/08/22 11:56:47;;;;;;;0.85;0.70;;;30.10;52.10;;;;;;5018833;28;20037;-77
2022/08/22 11:59:31;;;;;;;0.98;0.77;;;28.70;55.20;;;;;;5022575;28;20022;-76
2022/08/22 12:02:02;;;;;;;0.80;0.80;;;28.10;56.10;;;;;;5019111;28;20036;-76
2022/08/22 12:04:36;;;;;;;1.00;0.75;;;27.90;57.40;;;;;;5023090;28;20124;-76
2022/08/22 12:07:15;;;;;;;1.35;0.65;;;27.90;57.10;;;;;;5013479;28;20048;-76
2022/08/22 12:09:50;;;;;;;1.08;0.80;;;28.10;56.50;;;;;;5004582;28;20455;-76
2022/08/22 12:12:24;;;;;;;1.05;0.85;;;27.80;56.60;;;;;;5019703;28;20641;-76
2022/08/22 12:14:49;;;;;;;0.68;0.68;;;27.50;57.10;;;;;;5028412;28;20037;-76
2022/08/22 12:17:43;;;;;;;0.73;0.73;;;28.50;55.40;;;;;;5024656;28;20032;-76
2022/08/22 12:20:56;;;;;;;1.38;0.80;;;29.10;53.70;;;;;;5023678;28;20044;-76
2022/08/22 12:23:45;;;;;;;0.70;0.70;;;28.90;54.70;;;;;;5021308;28;20076;-76
2022/08/22 12:26:34;;;;;;;0.80;0.80;;;28.90;54.20;;;;;;5028581;28;20913;-76
2022/08/22 12:29:21;;;;;;;1.27;1.02;;;29.00;53.30;;;;;;5027471;28;20031;-76
2022/08/22 12:32:27;;;;;;;1.10;0.80;;;29.50;52.80;;;;;;5024613;28;20029;-77
2022/08/22 12:35:14;;;;;;;1.13;0.90;;;30.20;51.00;;;;;;5025426;28;20024;-76
2022/08/22 12:38:12;;;;;;;0.88;0.88;;;30.50;51.10;;;;;;5018040;28;20376;-75
2022/08/22 12:41:05;;;;;;;1.13;1.02;;;30.10;51.90;;;;;;4999652;28;20041;-76
2022/08/22 12:43:56;;;;;;;1.40;1.25;;;29.90;51.90;;;;;;5019278;28;20064;-81
2022/08/22 12:46:39;;;;;;;1.40;1.02;;;29.40;52.50;;;;;;5024329;28;20526;-78
2022/08/22 12:49:35;;;;;;;1.23;1.13;;;27.90;56.00;;;;;;5022570;28;20037;-86
2022/08/22 12:52:45;;;;;;;0.88;0.82;;;27.60;56.90;;;;;;5015505;28;20571;-82
2022/08/22 12:55:16;;;;;;;0.70;0.70;;;27.60;56.00;;;;;;5022182;28;20034;-76
2022/08/22 12:57:49;;;;;;;0.88;0.88;;;28.70;54.50;;;;;;5028430;28;20029;-76
2022/08/22 13:00:44;;;;;;;1.67;0.95;;;29.10;54.00;;;;;;5024128;28;20021;-77
2022/08/22 13:03:33;;;;;;;1.05;0.80;;;28.50;54.40;;;;;;5012481;28;20044;-89
2022/08/22 13:06:23;;;;;;;1.70;1.30;;;28.10;54.70;;;;;;5019615;28;20387;-77
2022/08/22 13:08:48;;;;;;;1.38;0.93;;;28.50;54.30;;;;;;5027255;28;20033;-77
2022/08/22 13:11:14;;;;;;;1.85;0.90;;;29.20;53.60;;;;;;5027210;28;20440;-78
2022/08/22 13:13:50;;;;;;;1.10;0.90;;;29.10;53.10;;;;;;5025685;28;20025;-76
2022/08/22 13:16:19;;;;;;;1.02;1.02;;;28.50;54.30;;;;;;5019070;28;20037;-75
2022/08/22 13:18:59;;;;;;;1.55;1.17;;;28.10;54.80;;;;;;5018014;28;20026;-76
2022/08/22 13:21:36;;;;;;;0.93;0.90;;;29.30;54.60;;;;;;5018116;28;21977;-78
2022/08/22 13:24:10;;;;;;;3.08;0.82;;;30.00;52.30;;;;;;5015374;28;20451;-76
2022/08/22 13:26:47;;;;;;;1.40;0.90;;;30.90;51.80;;;;;;5012446;28;20129;-76
2022/08/22 13:29:24;;;;;;;2.15;1.10;;;30.40;52.60;;;;;;5022384;28;20464;-79
2022/08/22 13:31:52;;;;;;;1.00;0.90;;;29.70;53.40;;;;;;5024661;28;20041;-78
2022/08/22 13:34:27;;;;;;;1.25;0.98;;;29.20;53.70;;;;;;5019908;28;20387;-77
2022/08/22 13:36:58;;;;;;;0.80;0.80;;;28.50;55.10;;;;;;5022360;28;20156;-77
2022/08/22 13:39:31;;;;;;;1.67;0.80;;;27.80;55.90;;;;;;5025650;28;20116;-78
2022/08/22 13:41:59;;;;;;;0.82;0.82;;;27.40;57.50;;;;;;5021952;28;20044;-77
2022/08/22 13:44:34;;;;;;;1.50;1.00;;;26.90;58.40;;;;;;5022306;28;20155;-76
2022/08/22 13:47:08;;;;;;;0.80;0.80;;;26.60;59.80;;;;;;5020676;28;20247;-78
2022/08/22 13:49:50;;;;;;;1.40;0.90;;;26.60;60.00;;;;;;5011531;28;20021;-78
2022/08/22 13:52:31;;;;;;;1.95;1.08;;;26.50;60.80;;;;;;5018095;28;20154;-77
2022/08/22 13:55:10;;;;;;;1.25;1.15;;;26.20;61.20;;;;;;5017104;28;21254;-78
2022/08/22 13:57:46;;;;;;;0.80;0.80;;;25.90;62.80;;;;;;5011109;28;20030;-79
2022/08/22 14:00:18;;;;;;;1.33;1.10;;;25.80;63.80;;;;;;5016365;28;20032;-80
2022/08/22 14:03:16;;;;;;;3.28;1.00;;;25.90;64.30;;;;;;5018964;28;20036;-79
2022/08/22 14:05:47;;;;;;;2.13;0.85;;;25.60;63.20;;;;;;5007220;28;20403;-81
2022/08/22 14:08:33;;;;;;;1.42;1.30;;;25.20;63.70;;;;;;5020458;28;20029;-80
2022/08/22 14:11:09;;;;;;;4.97;1.17;;;25.30;64.20;;;;;;5021851;28;20021;-78
2022/08/22 14:13:41;;;;;;;1.13;0.90;;;25.50;64.30;;;;;;5021264;28;20029;-83
2022/08/22 14:16:20;;;;;;;0.93;0.93;;;25.70;62.80;;;;;;5022238;28;20036;-80